Time;durP1;ratioP1;P1;durP2;ratioP2;P2;SDS_P1;SDS_P2;PMS_P1;PMS_P2;Temp;Humidity;BMP_temperature;BMP_pressure;BME280_temperature;BME280_humidity;BME280_pressure;Samples;Min_cycle;Max_cycle;Signal;HPM_P1;HPM_P2
2023/01/28 00:03:05;;;;;;;5.20;1.47;;;;;;;4.96;nan;102907.00;6186756;28;20570;-69
2023/01/28 00:06:26;;;;;;;1.00;1.00;;;;;;;4.93;nan;102906.19;6173940;28;20225;-68
2023/01/28 00:09:46;;;;;;;0.97;0.90;;;;;;;5.16;nan;102909.00;6179656;28;20230;-71
2023/01/28 00:13:07;;;;;;;0.90;0.73;;;;;;;5.14;nan;102910.84;6183891;28;20242;-70
2023/01/28 00:16:29;;;;;;;0.70;0.70;;;;;;;5.27;nan;102912.19;6178627;28;20316;-71
2023/01/28 00:19:51;;;;;;;1.00;1.00;;;;;;;5.23;nan;102911.44;6170701;28;20627;-71
2023/01/28 00:23:11;;;;;;;0.93;0.90;;;;;;;5.39;nan;102909.06;6182287;28;21591;-70
2023/01/28 00:26:32;;;;;;;0.77;0.77;;;;;;;5.22;nan;102909.66;6185918;28;20249;-70
2023/01/28 00:29:54;;;;;;;0.97;0.97;;;;;;;5.37;nan;102913.59;6164086;28;20240;-71
2023/01/28 00:33:15;;;;;;;0.90;0.90;;;;;;;5.55;nan;102920.97;6183756;28;20786;-70
2023/01/28 00:36:38;;;;;;;0.77;0.77;;;;;;;5.63;nan;102914.44;6189356;28;20228;-70
2023/01/28 00:39:59;;;;;;;0.90;0.90;;;;;;;5.47;nan;102904.31;6185532;28;20234;-71
2023/01/28 00:43:20;;;;;;;2.83;1.10;;;;;;;5.47;nan;102909.69;6185960;28;20237;-70
2023/01/28 00:46:41;;;;;;;5.20;1.03;;;;;;;5.35;nan;102911.00;6174203;28;20229;-70
2023/01/28 00:50:03;;;;;;;1.43;1.00;;;;;;;4.78;nan;102913.81;6184441;28;20320;-70
2023/01/28 00:53:26;;;;;;;0.40;0.40;;;;;;;4.26;nan;102912.78;6181441;28;20230;-71
2023/01/28 00:56:47;;;;;;;0.90;0.87;;;;;;;4.53;nan;102907.47;6178813;28;20237;-70
2023/01/28 01:00:09;;;;;;;0.70;0.70;;;;;;;4.30;nan;102909.97;6171349;28;20557;-70
2023/01/28 01:03:30;;;;;;;2.10;1.07;;;;;;;4.72;nan;102910.44;6186921;28;20234;-70
2023/01/28 01:06:51;;;;;;;0.50;0.50;;;;;;;4.83;nan;102909.19;6178668;28;20230;-70
2023/01/28 01:10:16;;;;;;;0.90;0.90;;;;;;;5.00;nan;102913.09;6181724;28;20238;-70
2023/01/28 01:13:37;;;;;;;0.60;0.60;;;;;;;4.99;nan;102908.66;6181032;28;20230;-70
2023/01/28 01:16:58;;;;;;;1.33;1.00;;;;;;;5.12;nan;102907.34;6174769;28;20237;-70
2023/01/28 01:20:21;;;;;;;0.90;0.90;;;;;;;5.09;nan;102912.81;6175971;28;20225;-70
2023/01/28 01:23:42;;;;;;;2.00;0.90;;;;;;;5.23;nan;102918.56;6182679;28;20540;-70
2023/01/28 01:27:05;;;;;;;1.60;1.50;;;;;;;5.04;nan;102912.06;6178001;28;20261;-71
2023/01/28 01:30:26;;;;;;;2.97;2.67;;;;;;;5.06;nan;102912.91;6173512;28;20237;-70
2023/01/28 01:33:49;;;;;;;1.57;1.47;;;;;;;5.12;nan;102902.00;6181859;28;20245;-71
2023/01/28 01:37:10;;;;;;;2.37;1.50;;;;;;;4.99;nan;102916.69;6198933;28;20237;-70
2023/01/28 01:40:31;;;;;;;1.90;1.70;;;;;;;5.02;nan;102912.13;6164800;28;20623;-69
2023/01/28 01:43:58;;;;;;;1.93;1.83;;;;;;;5.06;nan;102907.56;6163316;28;20234;-70
2023/01/28 01:47:21;;;;;;;2.10;1.23;;;;;;;5.03;nan;102903.19;6155074;28;20235;-70
2023/01/28 01:50:52;;;;;;;0.90;0.90;;;;;;;4.71;nan;102898.88;6153527;28;20237;-70
2023/01/28 01:54:15;;;;;;;1.70;1.60;;;;;;;4.88;nan;102908.16;6156533;28;20574;-70
2023/01/28 01:57:36;;;;;;;1.90;1.20;;;;;;;4.86;nan;102910.88;6142586;28;20612;-70
2023/01/28 02:00:59;;;;;;;1.43;1.00;;;;;;;4.91;nan;102902.72;6169767;28;20320;-70
2023/01/28 02:04:25;;;;;;;1.57;0.87;;;;;;;4.77;nan;102904.06;6182431;28;20226;-70
2023/01/28 02:07:48;;;;;;;0.80;0.80;;;;;;;4.73;nan;102899.75;6194543;28;20501;-70
2023/01/28 02:11:14;;;;;;;0.80;0.80;;;;;;;4.81;nan;102902.16;6173560;28;20973;-71
2023/01/28 02:14:41;;;;;;;1.17;1.07;;;;;;;4.94;nan;102902.63;6179345;28;20230;-70
2023/01/28 02:18:04;;;;;;;0.97;0.87;;;;;;;4.90;nan;102901.88;6177298;28;20230;-70
2023/01/28 02:21:41;;;;;;;1.30;0.70;;;;;;;4.86;nan;102900.19;6184654;28;20649;-70
2023/01/28 02:25:46;;;;;;;1.10;1.00;;;;;;;4.79;nan;102906.66;6190060;28;20249;-70
2023/01/28 02:29:15;;;;;;;3.37;0.97;;;;;;;5.01;nan;102899.69;6166254;28;20235;-70
2023/01/28 02:32:42;;;;;;;0.67;0.67;;;;;;;4.99;nan;102898.88;6139183;28;20230;-71
2023/01/28 02:36:10;;;;;;;0.90;0.90;;;;;;;4.82;nan;102898.53;6162751;28;20225;-71
2023/01/28 02:39:36;;;;;;;0.80;0.80;;;;;;;4.93;nan;102895.50;6170472;28;20225;-70
2023/01/28 02:42:57;;;;;;;1.13;0.97;;;;;;;5.11;nan;102887.75;6175620;28;20225;-70
2023/01/28 02:50:16;;;;;;;0.70;0.70;;;;;;;4.84;nan;102892.22;6172372;28;20237;-69
2023/01/28 02:53:43;;;;;;;0.70;0.70;;;;;;;4.97;nan;102903.38;6186558;28;20752;-70
2023/01/28 02:57:13;;;;;;;1.10;1.00;;;;;;;5.12;nan;102886.84;6200464;28;20244;-70
2023/01/28 03:00:46;;;;;;;0.77;0.77;;;;;;;5.03;nan;102887.16;6170499;28;20232;-70
2023/01/28 03:04:15;;;;;;;0.90;0.70;;;;;;;4.86;nan;102900.19;6184699;28;20317;-70
2023/01/28 03:07:38;;;;;;;0.80;0.80;;;;;;;4.97;nan;102905.19;6166666;28;20237;-70
2023/01/28 03:36:52;;;;;;;0.90;0.90;;;;;;;5.12;nan;102883.28;6187304;28;20253;-70
2023/01/28 03:40:48;;;;;;;0.60;0.60;;;;;;;5.08;nan;102895.91;6170425;28;20320;-70
2023/01/28 03:47:47;;;;;;;1.10;1.10;;;;;;;5.21;nan;102893.69;6173772;28;20394;-70
2023/01/28 03:51:10;;;;;;;1.53;0.93;;;;;;;5.17;nan;102892.91;6188388;28;20289;-70
2023/01/28 03:54:31;;;;;;;0.83;0.83;;;;;;;5.21;nan;102891.88;6181522;28;20229;-70
2023/01/28 03:57:53;;;;;;;0.90;0.90;;;;;;;4.99;nan;102893.50;6185565;28;20328;-70
2023/01/28 04:01:14;;;;;;;1.50;0.83;;;;;;;5.02;nan;102893.44;6165651;28;20362;-70
2023/01/28 04:04:37;;;;;;;1.40;1.10;;;;;;;4.61;nan;102889.41;6168791;28;20238;-70
2023/01/28 04:07:58;;;;;;;1.37;0.87;;;;;;;4.39;nan;102892.81;6176504;28;20246;-70
2023/01/28 04:11:50;;;;;;;1.00;1.00;;;;;;;4.62;nan;102891.19;6189047;28;20622;-70
2023/01/28 04:15:18;;;;;;;0.83;0.83;;;;;;;4.71;nan;102895.38;6172121;28;20224;-69
2023/01/28 04:18:41;;;;;;;0.90;0.90;;;;;;;4.70;nan;102896.28;6193234;28;20482;-70
2023/01/28 04:22:10;;;;;;;0.87;0.87;;;;;;;4.62;nan;102887.63;6181193;28;20313;-69
2023/01/28 04:25:31;;;;;;;3.37;1.33;;;;;;;4.69;nan;102881.19;6176998;28;20236;-70
2023/01/28 04:28:52;;;;;;;3.83;1.90;;;;;;;4.78;nan;102889.75;6175430;28;20442;-70
2023/01/28 04:32:15;;;;;;;0.83;0.83;;;;;;;4.69;nan;102876.69;6175615;28;20586;-70
2023/01/28 04:35:55;;;;;;;1.00;1.00;;;;;;;4.69;nan;102878.50;6185222;28;20776;-71
2023/01/28 04:39:48;;;;;;;1.13;1.13;;;;;;;4.78;nan;102883.53;6169776;28;20259;-70
2023/01/28 04:43:31;;;;;;;1.47;1.20;;;;;;;4.74;nan;102885.44;6194656;28;20316;-70
2023/01/28 04:47:10;;;;;;;1.93;1.37;;;;;;;4.71;nan;102882.00;6187276;28;20290;-70
2023/01/28 04:50:57;;;;;;;1.60;1.53;;;;;;;4.75;nan;102887.19;6191477;28;20225;-71
2023/01/28 04:54:47;;;;;;;4.53;1.87;;;;;;;5.02;nan;102896.09;6157317;28;20237;-71
2023/01/28 04:58:08;;;;;;;1.60;1.50;;;;;;;4.88;nan;102887.69;6190514;28;20321;-70
2023/01/28 05:01:30;;;;;;;1.60;1.50;;;;;;;4.81;nan;102903.03;6173709;28;20233;-70
2023/01/28 05:04:51;;;;;;;1.33;1.23;;;;;;;4.71;nan;102901.56;6170089;28;20600;-70
2023/01/28 05:08:44;;;;;;;1.23;1.23;;;;;;;4.84;nan;102886.88;6182567;28;20226;-70
2023/01/28 05:12:07;;;;;;;1.53;1.43;;;;;;;4.83;nan;102889.63;6173556;28;20921;-71
2023/01/28 05:15:31;;;;;;;1.63;1.53;;;;;;;4.70;nan;102877.56;6184178;28;20787;-70
2023/01/28 05:18:52;;;;;;;3.87;1.40;;;;;;;4.64;nan;102881.31;6175492;28;20230;-70
2023/01/28 05:22:14;;;;;;;3.10;1.73;;;;;;;3.72;nan;102884.13;6174019;28;20230;-70
2023/01/28 05:25:39;;;;;;;2.37;1.60;;;;;;;3.56;nan;102882.81;6175827;28;20225;-70
2023/01/28 05:29:00;;;;;;;1.40;1.30;;;;;;;3.69;nan;102873.53;6187779;28;20233;-70
2023/01/28 05:32:21;;;;;;;1.13;1.13;;;;;;;3.82;nan;102864.28;6179614;28;20237;-70
2023/01/28 05:35:43;;;;;;;1.70;1.37;;;;;;;3.91;nan;102864.03;6190615;28;20475;-70
2023/01/28 05:39:05;;;;;;;1.57;1.43;;;;;;;3.71;nan;102857.53;6176673;28;20592;-69
2023/01/28 05:42:27;;;;;;;1.27;1.17;;;;;;;3.76;nan;102861.78;6184571;28;20222;-70
2023/01/28 05:46:02;;;;;;;1.23;1.13;;;;;;;3.75;nan;102862.72;6190609;28;20312;-70
2023/01/28 05:49:46;;;;;;;2.77;2.57;;;;;;;3.82;nan;102861.63;6169381;28;20226;-70
2023/01/28 05:53:25;;;;;;;1.70;1.60;;;;;;;3.80;nan;102867.91;6190241;28;20226;-70
2023/01/28 05:56:46;;;;;;;1.77;1.67;;;;;;;3.89;nan;102860.53;6173333;28;20225;-70
2023/01/28 06:00:10;;;;;;;1.60;1.50;;;;;;;3.95;nan;102856.78;6183833;28;20245;-71
2023/01/28 06:03:36;;;;;;;1.17;1.17;;;;;;;3.89;nan;102854.31;6178702;28;21125;-71
2023/01/28 06:06:57;;;;;;;4.70;3.43;;;;;;;3.83;nan;102865.16;6201605;28;20240;-70
2023/01/28 06:10:19;;;;;;;1.83;1.73;;;;;;;3.77;nan;102860.00;6174725;28;20241;-70
2023/01/28 06:13:41;;;;;;;2.03;1.93;;;;;;;3.79;nan;102866.19;6182193;28;20262;-70
2023/01/28 06:17:27;;;;;;;2.50;2.23;;;;;;;3.47;nan;102866.19;6183056;28;20234;-70
2023/01/28 06:21:08;;;;;;;2.13;2.03;;;;;;;3.49;nan;102864.34;6183428;28;20796;-70
2023/01/28 06:24:29;;;;;;;3.07;2.50;;;;;;;3.35;nan;102847.88;6177616;28;20230;-70
2023/01/28 06:27:50;;;;;;;1.93;1.83;;;;;;;3.28;nan;102859.59;6169464;28;20230;-70
2023/01/28 06:31:11;;;;;;;2.10;2.00;;;;;;;2.89;nan;102854.41;6175204;28;20284;-71
2023/01/28 06:34:33;;;;;;;2.17;1.97;;;;;;;2.55;nan;102839.31;6178065;28;20868;-71
2023/01/28 06:37:54;;;;;;;1.80;1.70;;;;;;;3.01;nan;102854.09;6179370;28;20564;-71
2023/01/28 06:41:15;;;;;;;3.07;2.77;;;;;;;3.31;nan;102849.75;6179531;28;20229;-70
2023/01/28 06:44:35;;;;;;;2.17;2.07;;;;;;;3.11;nan;102836.97;6178056;28;20779;-70
2023/01/28 06:47:56;;;;;;;6.33;2.50;;;;;;;2.83;nan;102843.03;6144969;28;20621;-71
2023/01/28 06:51:18;;;;;;;3.33;2.77;;;;;;;2.87;nan;102853.59;6147152;28;20229;-71
2023/01/28 06:54:39;;;;;;;2.97;2.53;;;;;;;3.21;nan;102853.59;6146043;28;20226;-71
2023/01/28 06:58:00;;;;;;;4.17;2.90;;;;;;;3.17;nan;102867.91;6147602;28;20234;-71
2023/01/28 07:01:21;;;;;;;2.43;2.30;;;;;;;3.32;nan;102869.31;6147802;28;20233;-70
2023/01/28 07:04:42;;;;;;;2.77;2.57;;;;;;;3.05;nan;102881.53;6138976;28;20228;-72
2023/01/28 07:08:04;;;;;;;2.63;2.43;;;;;;;3.31;nan;102892.41;6167871;28;20226;-71
2023/01/28 07:11:25;;;;;;;2.97;2.17;;;;;;;3.38;nan;102912.63;6151527;28;20484;-71
2023/01/28 07:14:46;;;;;;;2.47;2.20;;;;;;;3.50;nan;102917.66;6146402;28;20324;-70
2023/01/28 07:18:07;;;;;;;2.67;2.47;;;;;;;3.55;nan;102925.50;6163206;28;20238;-71
2023/01/28 07:21:28;;;;;;;3.00;2.30;;;;;;;3.54;nan;102930.00;6181597;28;20556;-70
2023/01/28 07:24:51;;;;;;;2.27;2.17;;;;;;;3.53;nan;102927.34;6164953;28;20242;-71
2023/01/28 07:28:12;;;;;;;2.70;2.50;;;;;;;3.59;nan;102938.72;6186070;28;20233;-71
2023/01/28 07:31:32;;;;;;;5.40;2.70;;;;;;;3.57;nan;102942.34;6180646;28;20252;-70
2023/01/28 07:34:53;;;;;;;2.70;2.53;;;;;;;3.42;nan;102932.09;6164070;28;20230;-71
2023/01/28 07:38:15;;;;;;;3.20;2.70;;;;;;;3.42;nan;102927.63;6187738;28;20257;-70
2023/01/28 07:41:37;;;;;;;3.80;3.50;;;;;;;3.42;nan;102926.78;6179689;28;20316;-71
2023/01/28 07:45:05;;;;;;;4.53;3.00;;;;;;;3.45;nan;102940.00;6183208;28;20233;-71
2023/01/28 07:48:26;;;;;;;5.23;3.00;;;;;;;3.39;nan;102950.81;6180682;28;20266;-71
2023/01/28 07:51:49;;;;;;;3.27;2.97;;;;;;;3.32;nan;102942.09;6165621;28;20256;-71
2023/01/28 07:55:11;;;;;;;3.23;2.93;;;;;;;3.36;nan;102937.59;6169873;28;20237;-71
2023/01/28 07:58:34;;;;;;;4.93;3.57;;;;;;;3.29;nan;102931.53;6167956;28;21189;-70
2023/01/28 08:01:55;;;;;;;2.80;2.57;;;;;;;3.33;nan;102943.88;6147560;28;20229;-69
2023/01/28 08:05:17;;;;;;;3.60;3.10;;;;;;;3.35;nan;102952.72;6142136;28;20257;-70
2023/01/28 08:08:38;;;;;;;3.13;2.93;;;;;;;3.39;nan;102959.72;6152820;28;20222;-70
2023/01/28 08:11:59;;;;;;;6.17;3.13;;;;;;;3.15;nan;102952.34;6158923;28;20235;-70
2023/01/28 08:15:22;;;;;;;5.40;4.90;;;;;;;3.11;nan;102959.50;6158078;28;20230;-70
2023/01/28 08:18:44;;;;;;;4.03;2.93;;;;;;;3.22;nan;102956.59;6158281;28;21811;-72
2023/01/28 08:22:05;;;;;;;3.63;3.10;;;;;;;3.23;nan;102953.88;6155530;28;20238;-70
2023/01/28 08:25:26;;;;;;;3.30;2.83;;;;;;;3.29;nan;102952.88;6143171;28;20241;-71
2023/01/28 08:28:47;;;;;;;2.97;2.77;;;;;;;3.39;nan;102954.38;6152152;28;20235;-69
2023/01/28 08:32:09;;;;;;;8.73;3.77;;;;;;;3.55;nan;102949.50;6157736;28;20234;-71
2023/01/28 08:35:29;;;;;;;3.40;3.10;;;;;;;3.48;nan;102961.25;6159103;28;20245;-72
2023/01/28 08:38:53;;;;;;;3.47;3.17;;;;;;;3.51;nan;102967.38;6171371;28;20231;-70
2023/01/28 08:42:14;;;;;;;5.10;3.23;;;;;;;3.93;nan;102946.69;6174505;28;20234;-72
2023/01/28 08:45:35;;;;;;;2.93;2.73;;;;;;;4.34;nan;102937.50;6151576;28;20241;-69
2023/01/28 08:48:57;;;;;;;3.80;3.50;;;;;;;5.04;nan;102954.84;6166495;28;20230;-67
2023/01/28 08:52:18;;;;;;;3.13;2.87;;;;;;;4.66;nan;102958.72;6160941;28;20636;-68
2023/01/28 08:55:39;;;;;;;3.83;3.03;;;;;;;4.63;nan;102966.84;6150864;28;20234;-68
2023/01/28 08:59:03;;;;;;;3.43;3.13;;;;;;;4.44;nan;102969.22;6162745;28;20230;-68
2023/01/28 09:02:24;;;;;;;3.10;2.90;;;;;;;4.23;nan;102988.53;6169464;28;20238;-68
2023/01/28 09:05:48;;;;;;;3.20;3.00;;;;;;;4.44;nan;102987.91;6166112;28;20325;-68
2023/01/28 09:09:09;;;;;;;16.40;4.33;;;;;;;7.44;nan;102981.50;6160001;28;20308;-68
2023/01/28 09:12:29;;;;;;;4.50;4.10;;;;;;;11.64;nan;102962.56;6181032;28;20238;-73
2023/01/28 09:15:51;;;;;;;2.30;2.20;;;;;;;13.33;nan;102973.38;6151988;28;20526;-72
2023/01/28 09:19:11;;;;;;;3.53;3.23;;;;;;;14.13;nan;102986.78;6170423;28;20230;-71
2023/01/28 09:22:34;;;;;;;4.30;2.53;;;;;;;15.15;nan;102989.28;6172331;28;20259;-69
2023/01/28 09:26:00;;;;;;;3.53;2.93;;;;;;;15.36;nan;102986.81;6161523;28;20249;-70
2023/01/28 09:29:21;;;;;;;2.60;2.40;;;;;;;16.17;nan;102988.63;6183700;28;20781;-70
2023/01/28 09:32:42;;;;;;;3.80;2.85;;;;;;;16.02;nan;102983.53;6164429;28;20231;-70
2023/01/28 09:36:05;;;;;;;5.32;2.47;;;;;;;15.93;nan;102998.72;6152489;28;20261;-70
2023/01/28 09:39:28;;;;;;;3.28;2.38;;;;;;;16.27;nan;102989.63;6156681;28;20230;-70
2023/01/28 09:43:03;;;;;;;3.35;2.80;;;;;;;17.40;nan;102990.31;6161265;28;20230;-70
2023/01/28 09:46:30;;;;;;;3.60;3.30;;;;;;;17.02;nan;102998.13;6160417;28;20230;-71
2023/01/28 09:49:55;;;;;;;4.45;3.70;;;;;;;13.69;nan;102994.41;6156786;28;20529;-69
2023/01/28 09:53:19;;;;;;;2.50;2.30;;;;;;;13.03;nan;102995.19;6173595;28;20246;-70
2023/01/28 09:56:45;;;;;;;2.50;1.70;;;;;;;12.75;nan;102981.69;6182147;28;20621;-70
2023/01/28 10:00:15;;;;;;;2.38;2.10;;;;;;;15.01;nan;102968.59;6153586;28;20269;-70
2023/01/28 10:03:51;;;;;;;1.73;1.63;;;;;;;16.51;nan;102965.94;6166089;28;20563;-70
2023/01/28 10:07:24;;;;;;;3.00;2.58;;;;;;;11.90;nan;102976.25;6165334;28;20243;-70
2023/01/28 10:10:50;;;;;;;2.58;2.38;;;;;;;12.19;nan;102954.66;6157935;28;20237;-69
2023/01/28 10:14:22;;;;;;;1.45;1.45;;;;;;;8.21;nan;102979.88;6168490;28;20262;-71
2023/01/28 10:17:47;;;;;;;2.38;2.22;;;;;;;9.37;nan;102961.69;6187218;28;20242;-70
2023/01/28 10:21:17;;;;;;;4.37;3.07;;;;;;;8.77;nan;102965.59;6163527;28;20257;-69
2023/01/28 10:24:45;;;;;;;2.00;1.73;;;;;;;11.15;nan;102949.22;6167982;28;20683;-70
2023/01/28 10:28:18;;;;;;;2.75;1.98;;;;;;;11.35;nan;102956.16;6153886;28;20321;-70
2023/01/28 10:31:45;;;;;;;2.00;1.90;;;;;;;10.00;nan;102960.19;6167588;28;21113;-70
2023/01/28 10:35:07;;;;;;;2.50;2.33;;;;;;;8.95;nan;102952.22;6154671;28;20233;-67
2023/01/28 10:38:29;;;;;;;2.93;2.00;;;;;;;7.40;nan;102946.78;6164491;28;20230;-67
2023/01/28 10:41:50;;;;;;;6.10;2.80;;;;;;;9.90;nan;102939.22;6151857;28;20899;-67
2023/01/28 10:45:18;;;;;;;2.23;2.00;;;;;;;9.38;nan;102952.69;6145142;28;20230;-68
2023/01/28 10:48:45;;;;;;;2.07;1.97;;;;;;;7.56;nan;102932.66;6157069;28;20229;-68
2023/01/28 10:52:11;;;;;;;4.63;2.43;;;;;;;6.43;nan;102929.31;6163183;28;20226;-67
2023/01/28 10:55:49;;;;;;;12.13;3.77;;;;;;;5.90;nan;102922.44;6150719;28;20222;-67
2023/01/28 10:59:20;;;;;;;2.77;2.50;;;;;;;4.78;nan;102911.13;6171089;28;20229;-67
2023/01/28 11:02:41;;;;;;;6.27;3.17;;;;;;;5.03;nan;102896.97;6168025;28;20607;-67
2023/01/28 11:06:04;;;;;;;3.77;3.37;;;;;;;5.64;nan;102891.22;6181637;28;20799;-67
2023/01/28 11:09:27;;;;;;;4.73;3.80;;;;;;;7.60;nan;102890.44;6180864;28;20263;-66
2023/01/28 11:12:55;;;;;;;5.10;3.13;;;;;;;8.29;nan;102889.97;6167623;28;20233;-66
2023/01/28 11:16:18;;;;;;;2.77;2.57;;;;;;;6.94;nan;102899.56;6171771;28;20236;-67
2023/01/28 11:19:39;;;;;;;3.73;3.43;;;;;;;7.17;nan;102875.34;6176650;28;20317;-68
2023/01/28 11:23:01;;;;;;;3.67;2.60;;;;;;;10.37;nan;102860.22;6180767;28;20229;-67
2023/01/28 11:26:25;;;;;;;3.27;2.90;;;;;;;11.94;nan;102858.88;6177399;28;20233;-68
2023/01/28 11:29:46;;;;;;;2.53;2.33;;;;;;;11.66;nan;102842.63;6168577;28;21714;-67
2023/01/28 11:33:17;;;;;;;1.90;1.80;;;;;;;9.99;nan;102834.50;6182229;28;20256;-68
2023/01/28 11:36:38;;;;;;;5.37;3.33;;;;;;;13.04;nan;102822.78;6184546;28;20241;-67
2023/01/28 11:40:19;;;;;;;3.13;2.47;;;;;;;12.50;nan;102832.72;6163599;28;20280;-68
2023/01/28 11:43:40;;;;;;;2.47;2.28;;;;;;;9.87;nan;102845.94;6159849;28;20600;-67
2023/01/28 11:47:19;;;;;;;2.63;2.42;;;;;;;9.58;nan;102850.22;6149204;28;20226;-67
2023/01/28 11:50:50;;;;;;;3.60;3.17;;;;;;;9.77;nan;102833.06;6151364;28;20321;-68
2023/01/28 11:54:24;;;;;;;3.97;3.30;;;;;;;8.37;nan;102825.97;6159900;28;20251;-67
2023/01/28 11:57:56;;;;;;;4.53;3.50;;;;;;;8.74;nan;102825.91;6141389;28;20245;-68
2023/01/28 12:01:27;;;;;;;8.57;3.90;;;;;;;6.67;nan;102842.63;6150142;28;20236;-66
2023/01/28 12:05:05;;;;;;;3.37;3.17;;;;;;;6.06;nan;102844.19;6135904;28;20253;-67
2023/01/28 12:08:34;;;;;;;4.50;3.23;;;;;;;6.77;nan;102846.66;6161132;28;20222;-67
2023/01/28 12:12:12;;;;;;;3.50;3.20;;;;;;;11.07;nan;102826.47;6149647;28;20594;-67
2023/01/28 12:15:56;;;;;;;3.30;3.10;;;;;;;8.54;nan;102823.34;6152436;28;20233;-67
2023/01/28 12:19:32;;;;;;;4.33;3.90;;;;;;;13.17;nan;102824.56;6149190;28;20234;-68
2023/01/28 12:23:06;;;;;;;3.93;3.57;;;;;;;8.40;nan;102820.47;6149852;28;20230;-68
2023/01/28 12:26:40;;;;;;;3.93;3.63;;;;;;;8.79;nan;102820.28;6153680;28;20514;-68
2023/01/28 12:30:13;;;;;;;5.77;4.20;;;;;;;10.63;nan;102817.41;6138040;28;20242;-67
2023/01/28 12:34:03;;;;;;;4.67;3.23;;;;;;;9.41;nan;102804.47;6163224;28;20234;-67
2023/01/28 12:37:33;;;;;;;6.77;3.73;;;;;;;9.47;nan;102816.75;6142830;28;20238;-68
2023/01/28 12:41:07;;;;;;;3.27;2.93;;;;;;;8.19;nan;102807.16;6150137;28;20831;-68
2023/01/28 12:44:32;;;;;;;4.60;4.20;;;;;;;11.23;nan;102795.75;6157513;28;20912;-67
2023/01/28 12:47:57;;;;;;;5.50;3.43;;;;;;;11.94;nan;102793.13;6160182;28;20309;-67
2023/01/28 12:51:23;;;;;;;4.23;3.83;;;;;;;12.22;nan;102771.47;6156515;28;20682;-69
2023/01/28 12:54:55;;;;;;;3.67;3.17;;;;;;;8.83;nan;102773.47;6145813;28;20235;-67
2023/01/28 12:58:23;;;;;;;3.87;3.43;;;;;;;6.86;nan;102779.25;6173247;28;20230;-67
2023/01/28 13:01:49;;;;;;;6.27;3.87;;;;;;;6.88;nan;102785.44;6154695;28;20241;-68
2023/01/28 13:05:15;;;;;;;4.10;3.63;;;;;;;7.13;nan;102775.38;6147266;28;20706;-67
2023/01/28 13:08:38;;;;;;;6.10;5.17;;;;;;;6.56;nan;102777.00;6163008;28;20231;-68
2023/01/28 13:12:01;;;;;;;6.13;4.70;;;;;;;6.88;nan;102777.41;6163874;28;20236;-67
2023/01/28 13:15:24;;;;;;;7.23;5.53;;;;;;;6.87;nan;102778.31;6155013;28;20596;-67
2023/01/28 13:18:46;;;;;;;8.60;4.37;;;;;;;7.85;nan;102767.59;6184462;28;20317;-67
2023/01/28 13:22:26;;;;;;;4.57;4.17;;;;;;;6.66;nan;102762.28;6183872;28;20600;-67
2023/01/28 13:25:51;;;;;;;4.50;4.10;;;;;;;5.41;nan;102761.03;6179873;28;20229;-67
2023/01/28 13:29:33;;;;;;;9.83;4.57;;;;;;;7.50;nan;102750.44;6186256;28;20352;-65
2023/01/28 13:32:57;;;;;;;6.30;4.03;;;;;;;6.68;nan;102763.94;6185448;28;20317;-65
2023/01/28 13:36:25;;;;;;;4.73;4.20;;;;;;;6.52;nan;102775.38;6182446;28;20854;-65
2023/01/28 13:39:49;;;;;;;6.33;4.63;;;;;;;7.10;nan;102778.19;6170499;28;20250;-76
2023/01/28 13:43:36;;;;;;;5.23;4.70;;;;;;;8.96;nan;102774.59;6189868;28;20380;-74
2023/01/28 13:47:00;;;;;;;5.40;4.80;;;;;;;9.49;nan;102778.00;6184205;28;20610;-74
2023/01/28 13:50:23;;;;;;;6.03;5.43;;;;;;;8.49;nan;102785.06;6180322;28;20224;-71
2023/01/28 13:53:49;;;;;;;5.27;4.87;;;;;;;7.11;nan;102803.22;6159517;28;20309;-71
2023/01/28 13:57:32;;;;;;;5.93;4.50;;;;;;;6.62;nan;102814.25;6169768;28;20241;-72
2023/01/28 14:01:20;;;;;;;6.47;5.50;;;;;;;7.08;nan;102806.00;6169931;28;20526;-67
2023/01/28 14:04:57;;;;;;;8.40;4.90;;;;;;;5.97;nan;102811.53;6135818;28;20222;-68
2023/01/28 14:08:39;;;;;;;7.17;5.87;;;;;;;5.81;nan;102805.88;6146287;28;20227;-68
2023/01/28 14:12:25;;;;;;;8.40;5.93;;;;;;;5.49;nan;102803.50;6156243;28;20760;-68
2023/01/28 14:15:56;;;;;;;6.33;5.67;;;;;;;5.91;nan;102798.38;6174200;28;20615;-69
2023/01/28 14:19:26;;;;;;;6.97;5.80;;;;;;;6.36;nan;102786.72;6177727;28;20238;-68
2023/01/28 14:22:47;;;;;;;7.80;4.90;;;;;;;5.72;nan;102790.16;6152411;28;20238;-67
2023/01/28 14:26:31;;;;;;;5.27;4.77;;;;;;;5.74;nan;102779.41;6180693;28;20233;-68
2023/01/28 14:30:03;;;;;;;4.60;4.20;;;;;;;5.86;nan;102789.69;6168579;28;20785;-68
2023/01/28 14:33:25;;;;;;;6.87;6.23;;;;;;;5.30;nan;102775.72;6189063;28;20750;-68
2023/01/28 14:36:49;;;;;;;6.97;6.17;;;;;;;4.75;nan;102784.81;6189202;28;20221;-68
2023/01/28 14:40:14;;;;;;;4.77;3.93;;;;;;;4.88;nan;102775.47;6163657;28;20598;-68
2023/01/28 14:43:38;;;;;;;5.40;4.90;;;;;;;4.99;nan;102773.25;6186322;28;20258;-67
2023/01/28 14:47:25;;;;;;;7.50;5.30;;;;;;;5.13;nan;102784.31;6181143;28;20641;-68
2023/01/28 14:51:10;;;;;;;9.97;5.77;;;;;;;5.36;nan;102791.53;6169881;28;20249;-68
2023/01/28 14:54:44;;;;;;;6.57;4.60;;;;;;;5.33;nan;102795.19;6180675;28;20281;-68
2023/01/28 14:58:09;;;;;;;7.57;5.30;;;;;;;5.37;nan;102809.31;6170349;28;20737;-68
2023/01/28 15:01:31;;;;;;;8.43;5.80;;;;;;;4.81;nan;102813.97;6180608;28;20237;-68
2023/01/28 15:04:53;;;;;;;6.73;6.00;;;;;;;5.05;nan;102822.97;6167143;28;20234;-68
2023/01/28 15:08:20;;;;;;;8.93;5.83;;;;;;;4.93;nan;102820.69;6189094;28;21714;-68
2023/01/28 15:11:45;;;;;;;9.57;6.13;;;;;;;5.10;nan;102824.53;6182281;28;20320;-67
2023/01/28 15:15:10;;;;;;;6.20;5.10;;;;;;;5.59;nan;102827.19;6172275;28;20233;-68
2023/01/28 15:18:35;;;;;;;7.30;5.03;;;;;;;5.68;nan;102815.28;6190987;28;20626;-69
2023/01/28 15:21:58;;;;;;;4.67;4.10;;;;;;;5.32;nan;102808.63;6181383;28;20293;-68
2023/01/28 15:25:21;;;;;;;9.37;6.53;;;;;;;5.48;nan;102805.34;6150770;28;20233;-67
2023/01/28 15:28:44;;;;;;;6.17;5.57;;;;;;;4.89;nan;102795.88;6164140;28;20238;-68
2023/01/28 15:32:06;;;;;;;6.17;5.03;;;;;;;4.91;nan;102779.78;6169451;28;20227;-67
2023/01/28 15:35:27;;;;;;;9.73;6.20;;;;;;;4.51;nan;102786.50;6157931;28;20232;-68
2023/01/28 15:38:48;;;;;;;8.33;5.43;;;;;;;4.88;nan;102795.00;6181126;28;20230;-68
2023/01/28 15:42:20;;;;;;;7.07;6.37;;;;;;;4.90;nan;102794.09;6183449;28;20636;-68
2023/01/28 15:45:47;;;;;;;6.97;6.03;;;;;;;5.07;nan;102791.72;6171725;28;20233;-68
2023/01/28 15:49:16;;;;;;;7.67;6.03;;;;;;;4.93;nan;102796.66;6180060;28;20242;-68
2023/01/28 15:52:40;;;;;;;8.20;5.17;;;;;;;5.03;nan;102790.09;6179251;28;20224;-68
2023/01/28 15:56:08;;;;;;;5.47;4.50;;;;;;;5.47;nan;102782.19;6180960;28;20626;-68
2023/01/28 15:59:30;;;;;;;11.27;5.33;;;;;;;5.35;nan;102776.41;6162815;28;22463;-68
2023/01/28 16:02:54;;;;;;;7.20;5.40;;;;;;;4.58;nan;102771.16;6170636;28;20234;-68
2023/01/28 16:06:20;;;;;;;6.63;4.63;;;;;;;4.34;nan;102779.97;6169394;28;20229;-68
2023/01/28 16:09:41;;;;;;;8.27;5.93;;;;;;;4.64;nan;102754.91;6145630;28;20258;-67
2023/01/28 16:13:06;;;;;;;6.10;4.87;;;;;;;4.36;nan;102770.97;6200192;28;20490;-68
2023/01/28 16:16:30;;;;;;;9.47;5.93;;;;;;;4.96;nan;102780.53;6169855;28;20549;-67
2023/01/28 16:19:59;;;;;;;4.47;3.97;;;;;;;4.43;nan;102787.66;6174665;28;20225;-68
2023/01/28 16:23:24;;;;;;;5.90;5.17;;;;;;;4.36;nan;102784.31;6089212;28;20229;-66
2023/01/28 16:26:57;;;;;;;9.07;5.23;;;;;;;4.65;nan;102770.03;6110550;28;20325;-66
2023/01/28 16:30:19;;;;;;;6.53;4.00;;;;;;;4.34;nan;102788.00;6180423;28;20232;-67
2023/01/28 16:33:40;;;;;;;4.63;4.23;;;;;;;4.45;nan;102783.16;6178556;28;20241;-67
2023/01/28 16:37:02;;;;;;;6.27;5.67;;;;;;;4.42;nan;102788.59;6183802;28;20229;-66
2023/01/28 16:40:24;;;;;;;9.23;5.87;;;;;;;4.40;nan;102793.97;6178275;28;20973;-67
2023/01/28 16:43:45;;;;;;;8.27;4.67;;;;;;;4.74;nan;102791.06;6188018;28;20226;-67
2023/01/28 16:47:06;;;;;;;9.60;5.17;;;;;;;4.34;nan;102796.00;6189416;28;20226;-69
2023/01/28 16:50:27;;;;;;;6.50;5.63;;;;;;;4.39;nan;102789.56;6171523;28;20620;-68
2023/01/28 16:53:50;;;;;;;16.10;6.00;;;;;;;4.12;nan;102766.44;6194223;28;20218;-67
2023/01/28 16:57:15;;;;;;;8.17;6.47;;;;;;;4.65;nan;102773.53;6187483;28;20234;-67
2023/01/28 17:00:36;;;;;;;8.10;4.93;;;;;;;4.72;nan;102783.09;6174420;28;20233;-68
2023/01/28 17:03:57;;;;;;;7.07;5.37;;;;;;;4.76;nan;102798.09;6182046;28;20254;-68
2023/01/28 17:07:18;;;;;;;14.80;5.40;;;;;;;4.80;nan;102797.06;6179708;28;20225;-68